.
WxDataArchive / Data Records for 2014-02-26
2014-02-25 February 2014 2014-02-27

Data Records for Wednesday, 26 February 2014

Time	Temp	Chill	HIndex	Humid	Dewpt	 Wind 	HiWind	WindDir	Rain 	Barom
-----	----	-----	------	-----	-----	------	------	-------	-----	-----
00:00	14.6	14.6	14.6	65	5.0	2	5	270	0.00	30.115 
00:05	14.4	14.4	14.4	65	4.8	2	5	270	0.00	30.115 
00:10	14.4	14.4	14.4	66	5.1	1	4	270	0.00	30.115 
00:15	14.3	14.3	14.3	65	4.7	2	5	270	0.00	30.112 
00:20	14.3	14.3	14.3	66	5.1	2	5	270	0.00	30.112 
00:25	14.1	14.1	14.1	66	4.9	2	4	270	0.00	30.112 
00:30	14.1	14.1	14.1	67	5.2	2	5	270	0.00	30.111 
00:35	14.0	14.0	14.0	67	5.1	2	4	292	0.00	30.111 
00:40	13.8	13.8	13.8	67	4.9	1	6	270	0.00	30.111 
00:45	13.6	13.6	13.6	67	4.7	1	4	270	0.00	30.110 
00:50	13.6	13.6	13.6	67	4.7	2	4	270	0.00	30.110 
00:55	13.5	13.5	13.5	66	4.3	2	7	270	0.00	30.110 
01:00	13.5	13.5	13.5	66	4.3	1	3	270	0.00	30.113 
01:05	13.3	13.3	13.3	65	3.8	1	5	270	0.00	30.113 
01:10	13.3	13.3	13.3	65	3.8	2	5	270	0.00	30.113 
01:15	13.1	13.1	13.1	65	3.6	2	4	270	0.00	30.116 
01:20	13.1	13.1	13.1	65	3.6	2	4	270	0.00	30.116 
01:25	12.9	12.9	12.9	64	3.1	2	4	270	0.00	30.116 
01:30	12.9	12.9	12.9	65	3.4	1	4	248	0.00	30.116 
01:35	12.8	12.8	12.8	65	3.3	1	3	248	0.00	30.116 
01:40	12.8	12.8	12.8	65	3.3	2	5	270	0.00	30.116 
01:45	12.6	12.6	12.6	65	3.1	2	5	270	0.00	30.116 
01:50	12.6	12.6	12.6	65	3.1	2	5	270	0.00	30.116 
01:55	12.6	12.6	12.6	65	3.1	1	4	292	0.00	30.116 
02:00	12.4	12.4	12.4	66	3.2	2	4	270	0.00	30.122 
02:05	12.4	12.4	12.4	66	3.2	2	5	270	0.00	30.122 
02:10	12.4	12.4	12.4	66	3.2	1	3	270	0.00	30.122 
02:15	12.3	12.3	12.3	66	3.1	2	4	270	0.00	30.122 
02:20	12.3	12.3	12.3	66	3.1	2	4	270	0.00	30.122 
02:25	12.1	12.1	12.1	65	2.6	2	6	270	0.00	30.122 
02:30	12.1	12.1	12.1	65	2.6	1	4	270	0.00	30.126 
02:35	12.1	12.1	12.1	65	2.6	2	5	270	0.00	30.126 
02:40	12.1	12.1	12.1	64	2.3	2	9	270	0.00	30.126 
02:45	11.9	11.9	11.9	64	2.1	1	4	270	0.00	30.126 
02:50	11.9	11.9	11.9	65	2.4	2	6	270	0.00	30.126 
02:55	11.9	11.9	11.9	65	2.4	2	4	270	0.00	30.126 
03:00	11.9	11.9	11.9	65	2.4	2	5	270	0.00	30.128 
03:05	11.7	11.7	11.7	65	2.2	2	6	292	0.00	30.128 
03:10	11.7	11.7	11.7	65	2.2	2	4	270	0.00	30.128 
03:15	11.7	11.7	11.7	65	2.2	2	4	270	0.00	30.130 
03:20	11.7	11.7	11.7	65	2.2	2	5	248	0.00	30.130 
03:25	11.6	11.6	11.6	65	2.1	2	5	270	0.00	30.130 
03:30	11.4	11.4	11.4	65	2.0	2	6	270	0.00	30.133 
03:35	11.2	11.2	11.2	65	1.8	1	3	270	0.00	30.133 
03:40	11.1	11.1	11.1	66	2.0	1	4	248	0.00	30.133 
03:45	11.1	11.1	11.1	66	2.0	1	3	270	0.00	30.132 
03:50	10.9	10.9	10.9	67	2.1	1	4	270	0.00	30.132 
03:55	10.7	10.7	10.7	68	2.3	2	5	270	0.00	30.132 
04:00	10.7	10.7	10.7	68	2.3	2	4	270	0.00	30.142 
04:05	10.5	10.5	10.5	68	2.1	2	5	270	0.00	30.142 
04:10	10.5	10.5	10.5	69	2.4	2	4	270	0.00	30.142 
04:15	10.5	10.5	10.5	69	2.4	2	4	270	0.00	30.143 
04:20	10.5	10.5	10.5	69	2.4	1	4	270	0.00	30.143 
04:25	10.4	10.4	10.4	70	2.6	1	4	270	0.00	30.143 
04:30	10.2	10.2	10.2	71	2.7	1	3	270	0.00	30.145 
04:35	10.0	10.0	10.0	71	2.5	2	5	270	0.00	30.145 
04:40	9.9	9.9	9.9	70	2.1	1	3	270	0.00	30.145 
04:45	9.9	9.9	9.9	70	2.1	1	4	248	0.00	30.148 
04:50	9.7	9.7	9.7	70	1.9	1	5	248	0.00	30.148 
04:55	9.5	9.5	9.5	69	1.4	2	4	248	0.00	30.148 
05:00	9.3	9.3	9.3	69	1.2	1	3	292	0.00	30.152 
05:05	9.3	9.3	9.3	69	1.2	1	3	270	0.00	30.152 
05:10	9.2	9.2	9.2	69	1.1	1	3	270	0.00	30.152 
05:15	9.0	9.0	9.0	69	0.9	1	2	270	0.00	30.160 
05:20	8.8	8.8	8.8	69	0.7	1	3	270	0.00	30.160 
05:25	8.8	8.8	8.8	69	0.7	1	3	248	0.00	30.160 
05:30	8.8	8.8	8.8	69	0.7	1	3	248	0.00	30.162 
05:35	8.6	8.6	8.6	69	0.5	1	3	248	0.00	30.162 
05:40	8.6	8.6	8.6	69	0.5	1	3	248	0.00	30.162 
05:45	8.4	8.4	8.4	69	0.4	0	2	248	0.00	30.162 
05:50	8.4	8.4	8.4	69	0.4	1	3	248	0.00	30.162 
05:55	8.3	8.3	8.3	69	0.3	0	1	248	0.00	30.162 
06:00	8.1	8.1	8.1	70	0.4	0	2	248	0.00	30.159 
06:05	7.9	7.9	7.9	70	0.2	0	2	248	0.00	30.159 
06:10	7.7	7.7	7.7	70	-0.0	0	2	248	0.00	30.159 
06:15	7.6	7.6	7.6	70	-0.1	0	2	248	0.00	30.165 
06:20	7.4	7.4	7.4	71	0.0	0	2	248	0.00	30.165 
06:25	7.4	7.4	7.4	71	0.0	0	2	248	0.00	30.165 
06:30	7.2	7.2	7.2	71	-0.2	0	2	248	0.00	30.164 
06:35	7.0	7.0	7.0	71	-0.4	0	1	248	0.00	30.164 
06:40	6.9	6.9	6.9	72	-0.2	0	2	248	0.00	30.164 
06:45	6.9	6.9	6.9	72	-0.2	0	1	248	0.00	30.164 
06:50	6.7	6.7	6.7	72	-0.4	0	1	248	0.00	30.164 
06:55	6.5	6.5	6.5	72	-0.6	0	1	248	0.00	30.164 
07:00	6.3	6.3	6.3	72	-0.8	0	2	248	0.00	30.171 
07:05	6.3	6.3	6.3	72	-0.8	0	2	248	0.00	30.171 
07:10	6.3	6.3	6.3	72	-0.8	0	1	248	0.00	30.171 
07:15	6.3	6.3	6.3	73	-0.5	0	2	248	0.00	30.179 
07:20	6.1	6.1	6.1	73	-0.7	0	1	248	0.00	30.179 
07:25	6.1	6.1	6.1	72	-1.0	0	2	248	0.00	30.179 
07:30	6.1	6.1	6.1	72	-1.0	0	2	248	0.00	30.182 
07:35	6.1	6.1	6.1	72	-1.0	0	2	248	0.00	30.182 
07:40	6.1	6.1	6.1	72	-1.0	0	1	248	0.00	30.182 
07:45	6.1	6.1	6.1	72	-1.0	0	2	248	0.00	30.187 
07:50	6.1	6.1	6.1	72	-1.0	0	2	248	0.00	30.187 
07:55	6.3	6.3	6.3	72	-0.8	0	2	248	0.00	30.187 
08:00	6.3	6.3	6.3	71	-1.1	0	1	248	0.00	30.191 
08:05	6.3	6.3	6.3	71	-1.1	0	2	248	0.00	30.191 
08:10	6.3	6.3	6.3	71	-1.1	0	3	248	0.00	30.191 
08:15	6.3	6.3	6.3	71	-1.1	0	1	248	0.00	30.203 
08:20	6.5	6.5	6.5	71	-0.9	1	3	248	0.00	30.203 
08:25	6.9	6.9	6.9	71	-0.5	0	2	248	0.00	30.203 
08:30	7.0	7.0	7.0	70	-0.7	1	4	248	0.00	30.202 
08:35	7.2	7.2	7.2	70	-0.5	1	2	248	0.00	30.202 
08:40	7.4	7.4	7.4	70	-0.3	1	4	248	0.00	30.202 
08:45	7.6	7.6	7.6	69	-0.4	1	4	248	0.00	30.207 
08:50	7.7	7.7	7.7	69	-0.3	1	3	248	0.00	30.207 
08:55	7.9	7.9	7.9	69	-0.1	1	3	248	0.00	30.207 
09:00	7.9	7.9	7.9	68	-0.4	1	4	248	0.00	30.204 
09:05	8.1	8.1	8.1	67	-0.6	2	4	248	0.00	30.204 
09:10	8.3	8.3	8.3	67	-0.4	1	4	270	0.00	30.204 
09:15	8.4	8.4	8.4	66	-0.6	1	4	270	0.00	30.215 
09:20	8.4	8.4	8.4	66	-0.6	1	4	270	0.00	30.215 
09:25	8.8	8.8	8.8	66	-0.2	1	3	270	0.00	30.215 
09:30	9.0	9.0	9.0	65	-0.3	2	4	270	0.00	30.209 
09:35	9.0	9.0	9.0	65	-0.3	2	4	270	0.00	30.209 
09:40	9.0	9.0	9.0	65	-0.3	2	4	270	0.00	30.209 
09:45	9.2	9.2	9.2	65	-0.1	2	5	270	0.00	30.204 
09:50	9.2	9.2	9.2	65	-0.1	2	4	270	0.00	30.204 
09:55	9.5	9.5	9.5	65	0.1	1	4	248	0.00	30.204 
10:00	9.9	9.9	9.9	64	0.2	2	3	248	0.00	30.195 
10:05	10.2	10.2	10.2	64	0.5	1	3	248	0.00	30.195 
10:10	10.2	10.2	10.2	63	0.1	1	4	248	0.00	30.195 
10:15	10.5	10.5	10.5	64	0.8	1	4	248	0.00	30.190 
10:20	10.5	10.5	10.5	62	0.1	2	3	270	0.00	30.190 
10:25	10.5	10.5	10.5	62	0.1	2	4	270	0.00	30.190 
10:30	10.9	10.9	10.9	63	0.8	1	3	270	0.00	30.190 
10:35	11.1	11.1	11.1	62	0.7	2	4	270	0.00	30.190 
10:40	10.7	10.7	10.7	61	-0.1	2	4	270	0.00	30.190 
10:45	10.9	10.9	10.9	62	0.5	2	4	248	0.00	30.188 
10:50	11.2	11.2	11.2	62	0.8	1	5	248	0.00	30.188 
10:55	11.6	11.6	11.6	61	0.8	1	4	248	0.00	30.188 
11:00	11.9	11.9	11.9	60	0.7	2	4	270	0.00	30.185 
11:05	11.7	11.7	11.7	60	0.5	1	3	292	0.00	30.185 
11:10	11.7	11.7	11.7	60	0.5	2	4	292	0.00	30.185 
11:15	11.9	11.9	11.9	59	0.4	1	4	270	0.00	30.181 
11:20	12.1	12.1	12.1	59	0.6	1	4	270	0.00	30.181 
11:25	12.3	12.3	12.3	58	0.4	2	4	248	0.00	30.181 
11:30	12.1	12.1	12.1	57	-0.2	2	5	248	0.00	30.173 
11:35	12.1	12.1	12.1	57	-0.2	2	4	315	0.00	30.173 
11:40	12.4	12.4	12.4	58	0.5	2	4	270	0.00	30.173 
11:45	12.6	12.6	12.6	57	0.3	1	4	270	0.00	30.165 
11:50	12.4	12.4	12.4	56	-0.3	2	4	270	0.00	30.165 
11:55	12.3	12.3	12.3	56	-0.4	2	5	270	0.00	30.165 
12:00	12.6	12.6	12.6	57	0.3	1	6	315	0.00	30.166 
12:05	12.9	12.9	12.9	56	0.2	3	6	270	0.00	30.166 
12:10	12.8	12.8	12.8	56	0.1	2	4	292	0.00	30.166 
12:15	13.1	13.1	13.1	55	0.0	2	4	292	0.00	30.157 
12:20	13.5	13.5	13.5	55	0.4	2	6	270	0.00	30.157 
12:25	13.6	13.6	13.6	54	0.1	2	4	225	0.00	30.157 
12:30	14.1	14.1	14.1	55	0.9	1	4	248	0.00	30.148 
12:35	14.4	14.4	14.4	53	0.4	1	4	248	0.00	30.148 
12:40	14.6	14.6	14.6	54	1.0	1	4	315	0.00	30.148 
12:45	14.6	14.6	14.6	52	0.2	2	6	248	0.00	30.138 
12:50	14.0	14.0	14.0	51	-0.8	2	4	270	0.00	30.138 
12:55	13.6	13.6	13.6	53	-0.3	2	9	270	0.00	30.138 
13:00	13.8	13.8	13.8	51	-0.9	2	5	270	0.00	30.128 
13:05	13.5	13.5	13.5	53	-0.4	2	4	270	0.00	30.128 
13:10	13.5	13.5	13.5	52	-0.8	2	5	270	0.00	30.128 
13:15	13.3	13.3	13.3	52	-1.0	2	5	248	0.00	30.121 
13:20	13.6	13.6	13.6	52	-0.7	2	5	270	0.00	30.121 
13:25	14.3	14.3	14.3	51	-0.5	1	5	248	0.00	30.121 
13:30	14.4	14.4	14.4	50	-0.8	3	7	270	0.00	30.107 
13:35	14.3	14.3	14.3	50	-0.9	3	6	292	0.00	30.107 
13:40	14.4	14.4	14.4	48	-1.7	2	6	248	0.00	30.107 
13:45	14.8	14.8	14.8	46	-2.2	2	6	270	0.00	30.094 
13:50	14.8	14.8	14.8	49	-0.9	2	5	270	0.00	30.094 
13:55	14.6	14.6	14.6	48	-1.5	2	7	270	0.00	30.094 
14:00	14.3	14.3	14.3	49	-1.3	3	7	270	0.00	30.086 
14:05	14.4	14.4	14.4	50	-0.8	2	5	270	0.00	30.086 
14:10	14.8	14.8	14.8	49	-0.9	1	5	248	0.00	30.086 
14:15	14.9	14.9	14.9	48	-1.2	2	5	248	0.00	30.070 
14:20	14.8	14.8	14.8	47	-1.7	3	7	270	0.00	30.070 
14:25	14.6	14.6	14.6	50	-0.6	2	4	270	0.00	30.070 
14:30	14.9	14.9	14.9	49	-0.8	2	5	248	0.00	30.060 
14:35	15.1	15.1	15.1	47	-1.5	2	5	248	0.00	30.060 
14:40	14.9	14.9	14.9	47	-1.6	2	5	270	0.00	30.060 
14:45	14.9	14.9	14.9	47	-1.6	2	6	270	0.00	30.050 
14:50	14.9	14.9	14.9	45	-2.6	3	6	270	0.00	30.050 
14:55	14.6	14.6	14.6	45	-2.8	3	6	270	0.00	30.050 
15:00	14.9	14.9	14.9	43	-3.5	2	7	248	0.00	30.044 
15:05	15.2	15.2	15.2	44	-2.8	2	6	248	0.00	30.044 
15:10	15.4	15.4	15.4	43	-3.1	3	7	270	0.00	30.044 
15:15	15.4	15.4	15.4	43	-3.1	2	5	270	0.00	30.032 
15:20	15.6	15.6	15.6	43	-2.9	3	9	270	0.00	30.032 
15:25	15.2	15.2	15.2	44	-2.8	3	5	270	0.00	30.032 
15:30	15.4	15.4	15.4	45	-2.1	2	6	248	0.00	30.024 
15:35	15.4	15.4	15.4	45	-2.1	2	6	248	0.00	30.024 
15:40	15.4	15.4	15.4	44	-2.6	2	6	248	0.00	30.024 
15:45	15.4	15.4	15.4	44	-2.6	2	5	270	0.00	30.013 
15:50	15.4	15.4	15.4	45	-2.1	2	9	248	0.00	30.013 
15:55	15.2	15.2	15.2	45	-2.3	2	9	248	0.00	30.013 
16:00	15.2	15.2	15.2	45	-2.3	2	6	248	0.00	30.002 
16:05	15.2	15.2	15.2	46	-1.8	2	6	248	0.00	30.002 
16:10	15.4	15.4	15.4	46	-1.6	1	4	248	0.00	30.002 
16:15	15.6	15.6	15.6	46	-1.5	1	3	248	0.00	29.987 
16:20	15.4	15.4	15.4	46	-1.6	2	6	248	0.00	29.987 
16:25	15.4	15.4	15.4	48	-0.7	2	4	270	0.00	29.987 
16:30	15.2	15.2	15.2	47	-1.4	2	4	270	0.00	29.977 
16:35	15.4	15.4	15.4	48	-0.7	1	4	270	0.00	29.977 
16:40	15.4	15.4	15.4	47	-1.2	2	5	270	0.00	29.977 
16:45	15.6	15.6	15.6	48	-0.6	1	4	248	0.00	29.970 
16:50	15.6	15.6	15.6	46	-1.5	2	6	248	0.00	29.970 
16:55	15.6	15.6	15.6	47	-1.0	1	3	248	0.00	29.970 
17:00	15.7	15.7	15.7	46	-1.4	1	4	248	0.00	29.965 
17:05	15.7	15.7	15.7	46	-1.4	1	7	248	0.00	29.965 
17:10	15.7	15.7	15.7	47	-0.9	1	5	292	0.00	29.965 
17:15	15.9	15.9	15.9	45	-1.6	1	4	248	0.00	29.951 
17:20	15.7	15.7	15.7	46	-1.4	1	4	248	0.00	29.951 
17:25	15.7	15.7	15.7	47	-0.9	0	3	248	0.00	29.951 
17:30	15.9	15.9	15.9	47	-0.7	1	5	248	0.00	29.949 
17:35	15.7	15.7	15.7	44	-2.3	2	5	248	0.00	29.949 
17:40	15.4	15.4	15.4	44	-2.6	1	4	248	0.00	29.949 
17:45	15.4	15.4	15.4	46	-1.6	1	4	248	0.00	29.938 
17:50	15.4	15.4	15.4	46	-1.6	2	10	248	0.00	29.938 
17:55	15.2	15.2	15.2	47	-1.4	1	7	248	0.00	29.938 
18:00	15.2	15.2	15.2	47	-1.4	1	5	248	0.00	29.925 
18:05	15.2	15.2	15.2	48	-0.9	0	4	225	0.00	29.925 
18:10	15.1	15.1	15.1	48	-1.0	1	5	248	0.00	29.925 
18:15	15.1	15.1	15.1	49	-0.6	2	5	270	0.00	29.926 
18:20	14.9	14.9	14.9	49	-0.8	2	6	248	0.00	29.926 
18:25	14.6	14.6	14.6	50	-0.6	3	7	248	0.00	29.926 
18:30	14.6	14.6	14.6	50	-0.6	2	6	248	0.00	29.920 
18:35	14.4	14.4	14.4	51	-0.4	2	5	270	0.00	29.920 
18:40	14.3	14.3	14.3	52	-0.1	0	2	270	0.00	29.920 
18:45	14.1	14.1	14.1	52	-0.3	1	5	248	0.00	29.909 
18:50	14.1	14.1	14.1	53	0.2	1	5	248	0.00	29.909 
18:55	14.1	14.1	14.1	53	0.2	1	4	248	0.00	29.909 
19:00	14.0	14.0	14.0	53	0.1	1	4	248	0.00	29.906 
19:05	14.0	14.0	14.0	54	0.5	1	5	248	0.00	29.906 
19:10	13.8	13.8	13.8	54	0.3	0	3	248	0.00	29.906 
19:15	13.8	13.8	13.8	54	0.3	1	4	248	0.00	29.897 
19:20	13.8	13.8	13.8	54	0.3	0	2	248	0.00	29.897 
19:25	13.6	13.6	13.6	55	0.5	0	2	248	0.00	29.897 
19:30	13.5	13.5	13.5	55	0.4	0	3	248	0.00	29.893 
19:35	13.5	13.5	13.5	56	0.8	1	3	248	0.00	29.893 
19:40	13.3	13.3	13.3	56	0.6	0	2	248	0.00	29.893 
19:45	13.3	13.3	13.3	56	0.6	0	3	248	0.00	29.889 
19:50	13.3	13.3	13.3	56	0.6	1	4	248	0.00	29.889 
19:55	13.3	13.3	13.3	56	0.6	0	2	248	0.00	29.889 
20:00	13.5	13.5	13.5	56	0.8	1	3	248	0.00	29.885 
20:05	13.5	13.5	13.5	56	0.8	0	1	248	0.00	29.885 
20:10	13.5	13.5	13.5	55	0.4	1	4	248	0.00	29.885 
20:15	13.6	13.6	13.6	55	0.5	1	4	248	0.00	29.873 
20:20	13.8	13.8	13.8	54	0.3	2	6	248	0.00	29.873 
20:25	14.0	14.0	14.0	54	0.5	1	5	248	0.00	29.873 
20:30	14.0	14.0	14.0	55	0.8	1	5	248	0.00	29.863 
20:35	14.0	14.0	14.0	55	0.8	1	4	248	0.00	29.863 
20:40	13.8	13.8	13.8	55	0.7	1	3	248	0.00	29.863 
20:45	13.8	13.8	13.8	55	0.7	0	3	248	0.00	29.831 
20:50	13.8	13.8	13.8	55	0.7	1	4	248	0.00	29.831 
20:55	13.8	13.8	13.8	55	0.7	1	4	248	0.00	29.831 
21:00	13.8	13.8	13.8	55	0.7	2	6	248	0.00	29.831 
21:05	13.8	13.8	13.8	55	0.7	2	6	248	0.00	29.831 
21:10	14.0	14.0	14.0	55	0.8	1	6	248	0.00	29.831 
21:15	14.0	14.0	14.0	54	0.5	2	5	248	0.00	29.841 
21:20	14.0	14.0	14.0	54	0.5	2	8	248	0.00	29.841 
21:25	14.0	14.0	14.0	54	0.5	2	9	248	0.00	29.841 
21:30	14.0	14.0	14.0	53	0.1	2	9	248	0.00	29.834 
21:35	14.0	14.0	14.0	52	-0.3	3	10	248	0.00	29.834 
21:40	14.0	14.0	14.0	52	-0.3	3	11	270	0.00	29.834 
21:45	14.0	7.3	14.0	51	-0.8	4	11	248	0.00	29.829 
21:50	14.1	14.1	14.1	52	-0.3	3	10	248	0.00	29.829 
21:55	14.1	14.1	14.1	53	0.2	3	10	248	0.00	29.829 
22:00	14.1	14.1	14.1	54	0.5	3	9	248	0.00	29.825 
22:05	14.1	7.4	14.1	54	0.5	4	12	248	0.00	29.825 
22:10	14.3	7.6	14.3	55	1.1	4	10	248	0.00	29.825 
22:15	14.3	14.3	14.3	56	1.5	3	9	248	0.00	29.824 
22:20	14.1	14.1	14.1	57	1.7	2	9	248	0.00	29.824 
22:25	14.3	7.6	14.3	58	2.3	4	9	248	0.00	29.824 
22:30	14.3	7.6	14.3	58	2.3	4	9	248	0.00	29.820 
22:35	14.3	14.3	14.3	59	2.6	3	7	248	0.00	29.820 
22:40	14.1	14.1	14.1	60	2.8	2	6	248	0.00	29.820 
22:45	14.1	14.1	14.1	60	2.8	2	5	248	0.00	29.808 
22:50	14.1	14.1	14.1	61	3.2	3	10	248	0.00	29.808 
22:55	14.1	14.1	14.1	61	3.2	2	10	248	0.00	29.808 
23:00	14.3	7.6	14.3	61	3.3	4	14	248	0.00	29.794 
23:05	14.3	14.3	14.3	61	3.3	3	7	248	0.00	29.794 
23:10	14.3	14.3	14.3	61	3.3	3	7	248	0.00	29.794 
23:15	14.3	14.3	14.3	62	3.7	3	11	248	0.00	29.781 
23:20	14.3	14.3	14.3	62	3.7	3	7	248	0.00	29.781 
23:25	14.3	14.3	14.3	62	3.7	2	9	248	0.00	29.781 
23:30	14.1	14.1	14.1	62	3.5	2	6	248	0.00	29.771 
23:35	14.1	14.1	14.1	62	3.5	2	6	248	0.00	29.771 
23:40	14.1	14.1	14.1	62	3.5	2	5	248	0.00	29.771 
23:45	14.1	14.1	14.1	62	3.5	2	7	248	0.00	29.758 
23:50	14.1	14.1	14.1	63	3.9	1	4	248	0.00	29.758 
23:55	14.1	14.1	14.1	63	3.9	3	10	248	0.00	29.758 

CoCoRaHS
IN-AL-39
A2 Web Hosting
Creative Commons License
GoDaddy
search engine by freefind advanced

loaded 2018-11-18 11:03:27 • last modified 2010-11-18 10:43:29
Privacy PolicyDisclaimer
• wx.awcolley.com is powered by PmWiki v.2002016 •
• all content (unless otherwise noted) © 2018 A W Colley